Time;durP1;ratioP1;P1;durP2;ratioP2;P2;SDS_P1;SDS_P2;PMS_P1;PMS_P2;Temp;Humidity;BMP_temperature;BMP_pressure;BME280_temperature;BME280_humidity;BME280_pressure;Samples;Min_cycle;Max_cycle;Signal;HPM_P1;HPM_P2
2023/12/12 00:00:42;;;;;;;14.57;4.88;;;;;;;9.56;74.52;100737.06;5075923;28;20039;-64
2023/12/12 00:03:07;;;;;;;13.60;4.93;;;;;;;9.53;74.86;100749.47;5073489;28;20458;-64
2023/12/12 00:05:32;;;;;;;12.23;4.65;;;;;;;9.54;74.96;100750.31;5077927;28;20048;-64
2023/12/12 00:07:58;;;;;;;10.93;4.07;;;;;;;9.54;75.29;100742.00;5084959;28;20430;-64
2023/12/12 00:10:23;;;;;;;12.15;5.05;;;;;;;9.53;75.32;100745.88;5074939;28;20038;-64
2023/12/12 00:12:51;;;;;;;12.40;4.93;;;;;;;9.54;75.13;100748.38;5082040;28;20067;-64
2023/12/12 00:15:17;;;;;;;14.15;4.93;;;;;;;9.55;75.29;100752.03;5073214;28;20098;-64
2023/12/12 00:17:42;;;;;;;13.63;4.78;;;;;;;9.55;75.56;100752.03;5085569;28;20036;-64
2023/12/12 00:20:09;;;;;;;13.75;4.72;;;;;;;9.55;75.52;100752.84;5090475;28;20035;-64
2023/12/12 00:22:34;;;;;;;15.88;4.70;;;;;;;9.56;75.46;100749.00;5077128;28;20467;-64
2023/12/12 00:25:00;;;;;;;12.98;4.68;;;;;;;9.55;75.41;100744.53;5085359;28;20098;-64
2023/12/12 00:27:25;;;;;;;13.93;5.13;;;;;;;9.51;75.49;100746.13;5090642;28;20032;-65
2023/12/12 00:29:51;;;;;;;15.85;5.20;;;;;;;9.54;75.68;100740.06;5082617;28;20093;-64
2023/12/12 00:32:16;;;;;;;12.43;4.95;;;;;;;9.49;75.63;100737.22;5072747;28;20059;-64
2023/12/12 00:34:41;;;;;;;14.95;5.13;;;;;;;9.49;75.55;100741.91;5086635;28;20048;-64
2023/12/12 00:37:06;;;;;;;13.82;5.00;;;;;;;9.51;75.05;100756.34;5080754;28;20403;-64
2023/12/12 00:39:37;;;;;;;16.42;5.38;;;;;;;9.49;75.67;100753.00;5085892;28;20051;-64
2023/12/12 00:42:03;;;;;;;15.38;5.05;;;;;;;9.50;75.42;100749.97;5083531;28;20025;-64
2023/12/12 00:44:28;;;;;;;14.52;4.70;;;;;;;9.49;75.30;100745.53;5076857;28;20028;-64
2023/12/12 00:46:53;;;;;;;18.13;5.05;;;;;;;9.47;75.57;100744.94;5075041;28;20131;-64
2023/12/12 00:49:19;;;;;;;14.57;5.63;;;;;;;9.48;75.92;100738.31;5087001;28;20067;-64
2023/12/12 00:51:47;;;;;;;17.90;5.38;;;;;;;9.47;75.71;100736.63;5087812;28;20387;-64
2023/12/12 00:54:12;;;;;;;18.38;5.43;;;;;;;9.45;75.30;100735.19;5072098;28;20036;-64
2023/12/12 00:56:37;;;;;;;14.63;4.28;;;;;;;9.45;75.48;100737.97;5078460;28;20395;-64
2023/12/12 00:59:03;;;;;;;18.67;5.10;;;;;;;9.45;75.52;100740.72;5075288;28;20111;-64
2023/12/12 01:01:28;;;;;;;18.42;5.25;;;;;;;9.43;75.40;100743.75;5079212;28;20039;-64
2023/12/12 01:03:53;;;;;;;12.35;4.50;;;;;;;9.43;75.27;100740.13;5085097;28;20032;-64
2023/12/12 01:06:26;;;;;;;15.63;4.38;;;;;;;9.43;75.59;100726.28;5090510;28;20073;-64
2023/12/12 01:08:51;;;;;;;12.90;4.63;;;;;;;9.38;75.15;100729.78;5072885;28;20040;-64
2023/12/12 01:11:19;;;;;;;14.75;5.05;;;;;;;9.33;75.30;100729.72;5077212;28;20032;-64
2023/12/12 01:13:48;;;;;;;11.02;4.13;;;;;;;9.31;74.89;100731.88;5093890;28;20122;-64
2023/12/12 01:16:14;;;;;;;15.55;4.53;;;;;;;9.29;74.99;100732.13;5094180;28;20107;-64
2023/12/12 01:18:39;;;;;;;11.90;4.68;;;;;;;9.28;74.92;100726.84;5079605;28;20039;-65
2023/12/12 01:21:05;;;;;;;14.10;4.93;;;;;;;9.24;74.97;100726.50;5078789;28;20025;-64
2023/12/12 01:23:49;;;;;;;13.18;4.95;;;;;;;9.28;75.21;100724.91;5088685;28;20051;-65
2023/12/12 01:26:15;;;;;;;14.98;4.40;;;;;;;9.19;74.15;100720.84;5093860;28;20027;-64
2023/12/12 01:28:40;;;;;;;15.40;4.93;;;;;;;9.19;74.15;100714.47;5086739;28;20042;-64
2023/12/12 01:31:05;;;;;;;15.43;4.97;;;;;;;9.15;74.30;100710.50;5089601;28;20021;-64
2023/12/12 01:33:31;;;;;;;13.45;4.50;;;;;;;9.12;74.47;100714.63;5092385;28;20032;-64
2023/12/12 01:35:56;;;;;;;11.90;4.32;;;;;;;9.10;74.75;100714.03;5079381;28;20044;-63
2023/12/12 01:38:21;;;;;;;14.60;4.65;;;;;;;9.06;74.34;100710.06;5083468;28;20479;-64
2023/12/12 01:40:47;;;;;;;13.82;4.75;;;;;;;9.04;74.04;100707.56;5087073;28;20032;-64
2023/12/12 01:43:25;;;;;;;10.43;4.57;;;;;;;9.00;74.28;100709.16;5084446;28;20028;-64
2023/12/12 01:45:50;;;;;;;17.55;4.93;;;;;;;8.96;74.15;100704.31;5092864;28;20166;-65
2023/12/12 01:48:15;;;;;;;12.60;4.55;;;;;;;8.94;73.83;100707.34;5091601;28;20527;-64
2023/12/12 01:50:41;;;;;;;13.60;4.30;;;;;;;8.95;74.51;100710.94;5094601;28;20055;-64
2023/12/12 01:53:09;;;;;;;17.45;5.10;;;;;;;8.95;74.84;100716.50;5089257;28;20036;-64
2023/12/12 01:55:38;;;;;;;16.60;5.35;;;;;;;8.90;75.58;100711.69;5074053;28;20020;-64
2023/12/12 01:58:04;;;;;;;19.48;5.93;;;;;;;8.95;75.77;100714.56;5082405;28;20044;-64
2023/12/12 02:00:30;;;;;;;21.45;5.97;;;;;;;8.90;76.05;100717.22;5086225;28;20032;-64
2023/12/12 02:02:55;;;;;;;19.05;5.85;;;;;;;8.91;76.93;100707.84;5074479;28;20467;-64
2023/12/12 02:05:23;;;;;;;19.08;5.68;;;;;;;8.92;76.76;100705.91;5085077;28;20496;-64
2023/12/12 02:07:49;;;;;;;19.30;6.13;;;;;;;8.94;76.82;100704.56;5084550;28;20122;-64
2023/12/12 02:10:19;;;;;;;18.73;5.35;;;;;;;8.93;76.82;100705.69;5090796;28;20467;-64
2023/12/12 02:12:44;;;;;;;18.10;5.40;;;;;;;8.91;77.10;100715.31;5093155;28;20390;-64
2023/12/12 02:15:09;;;;;;;19.98;6.40;;;;;;;8.91;77.02;100707.00;5075057;28;20032;-64
2023/12/12 02:17:35;;;;;;;20.08;5.25;;;;;;;8.90;76.90;100706.16;5079068;28;20980;-64
2023/12/12 02:20:00;;;;;;;19.75;5.53;;;;;;;8.87;77.44;100703.88;5088172;28;20020;-64
2023/12/12 02:22:26;;;;;;;22.33;5.68;;;;;;;8.89;77.26;100701.72;5092629;28;20031;-64
2023/12/12 02:24:51;;;;;;;20.33;5.72;;;;;;;8.90;76.94;100700.63;5078622;28;20029;-64
2023/12/12 02:27:16;;;;;;;19.33;5.50;;;;;;;8.82;77.31;100687.19;5084252;28;20024;-64
2023/12/12 02:29:42;;;;;;;17.83;5.35;;;;;;;8.82;77.58;100687.19;5081045;28;20051;-64
2023/12/12 02:32:08;;;;;;;15.82;5.38;;;;;;;8.86;77.55;100688.38;5073022;28;20033;-64
2023/12/12 02:34:33;;;;;;;22.67;6.05;;;;;;;8.80;77.26;100689.34;5076412;28;20501;-63
2023/12/12 02:36:59;;;;;;;26.02;5.93;;;;;;;8.79;77.43;100684.91;5087362;28;20064;-63
2023/12/12 02:39:26;;;;;;;20.00;5.82;;;;;;;8.80;77.84;100692.97;5092354;28;20058;-64
2023/12/12 02:41:52;;;;;;;21.85;5.78;;;;;;;8.76;77.89;100682.59;5079837;28;20032;-63
2023/12/12 02:44:17;;;;;;;15.35;5.35;;;;;;;8.74;78.06;100680.09;5078417;28;20027;-63
2023/12/12 02:46:42;;;;;;;21.15;5.68;;;;;;;8.76;77.99;100679.84;5091054;28;20020;-63
2023/12/12 02:49:09;;;;;;;19.17;5.53;;;;;;;8.77;77.90;100682.38;5091040;28;20043;-63
2023/12/12 02:51:35;;;;;;;24.40;5.97;;;;;;;8.75;77.92;100684.53;5092542;28;20113;-64
2023/12/12 02:54:00;;;;;;;22.88;6.55;;;;;;;8.69;77.90;100685.53;5092127;28;20493;-63
2023/12/12 02:56:29;;;;;;;19.17;6.15;;;;;;;8.71;78.04;100686.13;5078618;28;20036;-64
2023/12/12 02:59:12;;;;;;;17.15;6.40;;;;;;;8.67;77.52;100684.09;5086081;28;20032;-64
2023/12/12 03:01:38;;;;;;;19.70;6.20;;;;;;;8.69;78.16;100688.31;5089698;28;20471;-64
2023/12/12 03:04:03;;;;;;;18.00;5.40;;;;;;;8.72;77.90;100686.94;5077202;28;20059;-63
2023/12/12 03:06:35;;;;;;;21.02;5.53;;;;;;;8.70;77.95;100680.84;5090332;28;20223;-63
2023/12/12 03:09:00;;;;;;;21.60;5.13;;;;;;;8.70;77.62;100683.59;5072474;28;20032;-63
2023/12/12 03:11:25;;;;;;;20.17;5.25;;;;;;;8.66;77.43;100679.66;5086136;28;20111;-63
2023/12/12 03:13:50;;;;;;;21.10;5.13;;;;;;;8.65;78.11;100672.44;5075498;28;20103;-63
2023/12/12 03:16:16;;;;;;;23.23;5.63;;;;;;;8.67;77.75;100662.78;5082632;28;20467;-63
2023/12/12 03:18:41;;;;;;;24.55;5.53;;;;;;;8.64;78.25;100662.44;5087690;28;20036;-64
2023/12/12 03:21:06;;;;;;;23.48;5.20;;;;;;;8.63;77.82;100660.75;5090375;28;20032;-64
2023/12/12 03:23:32;;;;;;;23.90;5.57;;;;;;;8.59;78.11;100657.66;5072308;28;20035;-64
2023/12/12 03:25:57;;;;;;;23.48;5.80;;;;;;;8.59;78.16;100664.00;5071452;28;20365;-64
2023/12/12 03:28:24;;;;;;;22.38;5.95;;;;;;;8.56;78.00;100661.72;5085863;28;20031;-64
2023/12/12 03:30:50;;;;;;;22.23;5.35;;;;;;;8.56;78.22;100658.13;5079756;28;20068;-64
2023/12/12 03:33:15;;;;;;;20.23;4.80;;;;;;;8.59;77.67;100658.47;5076043;28;20124;-64
2023/12/12 03:35:40;;;;;;;22.23;5.78;;;;;;;8.57;78.27;100662.59;5083473;28;20060;-64
2023/12/12 03:38:05;;;;;;;20.70;5.30;;;;;;;8.53;77.95;100647.56;5078872;28;20051;-64
2023/12/12 03:40:31;;;;;;;20.27;5.55;;;;;;;8.53;78.34;100648.41;5080719;28;20040;-64
2023/12/12 03:42:56;;;;;;;21.65;6.07;;;;;;;8.53;78.67;100648.41;5079656;28;20024;-64
2023/12/12 03:45:21;;;;;;;22.17;5.75;;;;;;;8.49;78.41;100644.44;5077100;28;20044;-64
2023/12/12 03:47:47;;;;;;;21.73;5.63;;;;;;;8.52;78.30;100643.09;5086033;28;20505;-64
2023/12/12 03:50:13;;;;;;;20.50;5.25;;;;;;;8.52;78.21;100638.41;5078188;28;20031;-64
2023/12/12 03:52:39;;;;;;;21.60;5.38;;;;;;;8.52;78.44;100623.75;5076320;28;20016;-64
2023/12/12 03:55:06;;;;;;;17.05;4.55;;;;;;;8.54;78.18;100627.94;5088510;28;20391;-64
2023/12/12 03:57:31;;;;;;;19.75;5.22;;;;;;;8.50;78.54;100625.94;5080595;28;20028;-64
2023/12/12 03:59:56;;;;;;;23.67;5.72;;;;;;;8.52;78.58;100610.75;5076047;28;20405;-64
2023/12/12 04:02:22;;;;;;;19.30;5.53;;;;;;;8.50;78.21;100612.94;5080581;28;20153;-64
2023/12/12 04:04:47;;;;;;;26.08;6.38;;;;;;;8.47;79.17;100618.94;5080001;28;20118;-64
2023/12/12 04:07:12;;;;;;;26.90;6.15;;;;;;;8.49;79.42;100610.41;5085162;28;20028;-63
2023/12/12 04:09:37;;;;;;;23.33;5.90;;;;;;;8.48;78.94;100608.72;5079299;28;20031;-65
2023/12/12 04:12:07;;;;;;;24.70;6.97;;;;;;;8.48;78.94;100619.78;5078371;28;20379;-64
2023/12/12 04:14:32;;;;;;;26.30;6.55;;;;;;;8.48;79.66;100603.19;5077609;28;20058;-65
2023/12/12 04:16:57;;;;;;;27.38;6.40;;;;;;;8.47;79.80;100601.53;5088918;28;20483;-64
2023/12/12 04:19:22;;;;;;;23.17;5.90;;;;;;;8.47;79.44;100596.81;5091539;28;20076;-64
2023/12/12 04:21:48;;;;;;;29.88;6.63;;;;;;;8.45;79.89;100593.47;5079513;28;20031;-65
2023/12/12 04:24:13;;;;;;;24.98;6.47;;;;;;;8.49;79.96;100605.72;5080192;28;20035;-63
2023/12/12 04:26:38;;;;;;;29.40;7.45;;;;;;;8.48;79.34;100598.50;5082799;28;20033;-63
2023/12/12 04:29:04;;;;;;;18.55;6.50;;;;;;;8.48;79.52;100598.50;5076154;28;20428;-64
2023/12/12 04:31:30;;;;;;;22.85;6.55;;;;;;;8.52;80.08;100594.16;5076405;28;20992;-64
2023/12/12 04:33:55;;;;;;;22.88;6.88;;;;;;;8.55;80.04;100596.44;5081119;28;20028;-64
2023/12/12 04:36:20;;;;;;;24.33;6.22;;;;;;;8.54;79.68;100597.53;5072625;28;20598;-64
2023/12/12 04:38:46;;;;;;;20.83;7.03;;;;;;;8.56;79.77;100592.56;5070870;28;20048;-64
2023/12/12 04:41:11;;;;;;;30.38;6.50;;;;;;;8.57;79.64;100597.03;5075052;28;20040;-64
2023/12/12 04:43:36;;;;;;;28.90;7.20;;;;;;;8.53;79.98;100590.31;5081113;28;20170;-64
2023/12/12 04:46:01;;;;;;;23.55;6.25;;;;;;;8.55;80.12;100588.13;5087060;28;20066;-64
2023/12/12 04:48:30;;;;;;;26.95;6.55;;;;;;;8.55;80.32;100581.75;5092075;28;20027;-64
2023/12/12 04:50:55;;;;;;;22.55;6.18;;;;;;;8.53;80.30;100583.94;5087360;28;20028;-64
2023/12/12 04:53:20;;;;;;;27.17;6.93;;;;;;;8.56;79.97;100581.50;5088527;28;20028;-64
2023/12/12 04:55:45;;;;;;;26.58;7.40;;;;;;;8.59;80.00;100583.78;5088989;28;20016;-64
2023/12/12 04:58:11;;;;;;;22.40;5.80;;;;;;;8.60;80.27;100573.56;5093057;28;20020;-64
2023/12/12 05:00:36;;;;;;;28.73;6.97;;;;;;;8.62;80.58;100573.31;5092570;28;20029;-64
2023/12/12 05:03:04;;;;;;;25.88;6.60;;;;;;;8.62;80.07;100574.16;5089615;28;20039;-64
2023/12/12 05:05:29;;;;;;;28.85;6.93;;;;;;;8.56;80.19;100578.75;5076423;28;20250;-64
2023/12/12 05:07:55;;;;;;;26.90;6.57;;;;;;;8.59;80.19;100575.47;5088393;28;20119;-64
2023/12/12 05:10:21;;;;;;;23.38;5.68;;;;;;;8.57;80.63;100566.59;5087422;28;20024;-64
2023/12/12 05:12:46;;;;;;;28.80;6.28;;;;;;;8.58;80.76;100559.97;5084505;28;20032;-64
2023/12/12 05:15:12;;;;;;;23.95;6.05;;;;;;;8.63;80.81;100563.94;5095420;28;20032;-64
2023/12/12 05:17:38;;;;;;;23.25;6.30;;;;;;;8.63;80.85;100558.41;5083587;28;20028;-64
2023/12/12 05:20:05;;;;;;;24.05;6.65;;;;;;;8.63;80.48;100556.47;5080943;28;20027;-64
2023/12/12 05:22:30;;;;;;;23.73;6.75;;;;;;;8.62;80.89;100554.78;5074145;28;20332;-64
2023/12/12 05:24:55;;;;;;;26.75;6.57;;;;;;;8.64;80.80;100551.78;5083564;28;20489;-64
2023/12/12 05:27:21;;;;;;;24.17;6.63;;;;;;;8.67;80.47;100545.75;5094265;28;20077;-64
2023/12/12 05:29:47;;;;;;;27.98;6.28;;;;;;;8.66;81.12;100544.06;5088851;28;20028;-64
2023/12/12 05:32:15;;;;;;;27.75;6.35;;;;;;;8.66;80.82;100541.31;5090696;28;20028;-64
2023/12/12 05:34:40;;;;;;;21.05;6.55;;;;;;;8.66;81.37;100546.84;5091088;28;20044;-64
2023/12/12 05:37:08;;;;;;;28.58;6.90;;;;;;;8.67;81.39;100548.50;5093601;28;20023;-64
2023/12/12 05:39:33;;;;;;;24.42;6.43;;;;;;;8.67;80.84;100549.34;5088859;28;20471;-64
2023/12/12 05:41:58;;;;;;;29.10;6.88;;;;;;;8.68;81.67;100541.88;5091964;28;20038;-64
2023/12/12 05:44:24;;;;;;;22.92;7.07;;;;;;;8.63;81.15;100539.03;5077271;28;20086;-64
2023/12/12 05:46:50;;;;;;;28.65;7.03;;;;;;;8.66;81.86;100542.16;5073214;28;20467;-64
2023/12/12 05:49:18;;;;;;;27.95;6.75;;;;;;;8.65;81.46;100543.25;5077231;28;20134;-64
2023/12/12 05:51:44;;;;;;;23.13;6.65;;;;;;;8.65;81.98;100540.47;5082283;28;20024;-64
2023/12/12 05:54:12;;;;;;;25.55;6.43;;;;;;;8.65;81.62;100546.00;5092556;28;20115;-64
2023/12/12 05:56:38;;;;;;;21.65;6.35;;;;;;;8.67;81.92;100545.75;5085357;28;20035;-64
2023/12/12 05:59:04;;;;;;;28.63;6.60;;;;;;;8.70;81.88;100546.09;5081590;28;20041;-64
2023/12/12 06:01:29;;;;;;;26.75;6.40;;;;;;;8.69;81.73;100552.72;5087483;28;20032;-64
2023/12/12 06:03:54;;;;;;;30.88;7.25;;;;;;;8.65;82.13;100543.25;5084345;28;20098;-64
2023/12/12 06:06:21;;;;;;;31.27;6.47;;;;;;;8.66;82.30;100546.84;5073146;28;20104;-64
2023/12/12 06:08:49;;;;;;;24.75;7.38;;;;;;;8.65;82.25;100534.09;5073399;28;20032;-64
2023/12/12 06:11:16;;;;;;;24.65;5.90;;;;;;;8.66;82.16;100536.59;5073455;28;20028;-64
2023/12/12 06:13:41;;;;;;;19.23;5.72;;;;;;;8.64;82.31;100527.69;5074303;28;20033;-64
2023/12/12 06:16:07;;;;;;;28.23;6.20;;;;;;;8.67;82.67;100535.50;5084874;28;20081;-64
2023/12/12 06:18:32;;;;;;;22.70;6.30;;;;;;;8.69;82.27;100533.34;5093341;28;20036;-64
2023/12/12 06:20:57;;;;;;;23.65;5.57;;;;;;;8.72;82.18;100526.47;5077801;28;20028;-64
2023/12/12 06:23:22;;;;;;;20.40;5.78;;;;;;;8.71;82.20;100524.78;5072887;28;20070;-64
2023/12/12 06:25:48;;;;;;;25.83;6.47;;;;;;;8.64;83.09;100522.16;5073081;28;20075;-64
2023/12/12 06:28:13;;;;;;;21.75;6.50;;;;;;;8.69;82.90;100519.53;5072808;28;20463;-65
2023/12/12 06:30:39;;;;;;;29.00;5.95;;;;;;;8.70;82.54;100517.59;5080716;28;20040;-65
2023/12/12 06:33:07;;;;;;;28.33;6.88;;;;;;;8.69;83.06;100502.91;5093130;28;20032;-64
2023/12/12 06:35:32;;;;;;;20.13;6.25;;;;;;;8.65;82.88;100504.50;5080425;28;20074;-64
2023/12/12 06:37:57;;;;;;;24.55;6.60;;;;;;;8.69;82.76;100504.84;5090392;28;20465;-64
2023/12/12 06:40:22;;;;;;;22.02;5.55;;;;;;;8.66;82.76;100495.09;5091429;28;20024;-64
2023/12/12 06:42:48;;;;;;;21.42;6.00;;;;;;;8.64;82.94;100493.66;5078422;28;20466;-64
2023/12/12 06:45:13;;;;;;;23.98;6.75;;;;;;;8.69;83.12;100491.00;5072619;28;20032;-64
2023/12/12 06:47:39;;;;;;;28.45;6.72;;;;;;;8.68;83.40;100483.78;5072651;28;20020;-64
2023/12/12 06:50:05;;;;;;;23.05;5.93;;;;;;;8.67;83.43;100487.66;5072917;28;20052;-64
2023/12/12 06:52:32;;;;;;;25.95;5.88;;;;;;;8.67;82.83;100482.94;5089325;28;20502;-64
2023/12/12 06:54:57;;;;;;;28.23;6.93;;;;;;;8.69;83.62;100477.19;5080887;28;20028;-64
2023/12/12 06:57:22;;;;;;;22.48;6.70;;;;;;;8.69;83.51;100468.88;5088828;28;20038;-64
2023/12/12 06:59:48;;;;;;;30.60;6.05;;;;;;;8.65;83.44;100462.16;5080850;28;20116;-64
2023/12/12 07:02:14;;;;;;;23.88;6.60;;;;;;;8.67;83.84;100468.28;5072628;28;20017;-65
2023/12/12 07:04:39;;;;;;;26.40;6.10;;;;;;;8.63;84.03;100467.09;5071212;28;20036;-64
2023/12/12 07:07:05;;;;;;;25.17;6.10;;;;;;;8.63;83.81;100467.09;5072255;28;20035;-64
2023/12/12 07:09:30;;;;;;;23.20;5.85;;;;;;;8.64;83.53;100468.78;5082573;28;20044;-64
2023/12/12 07:11:58;;;;;;;22.08;6.10;;;;;;;8.62;83.47;100466.25;5085687;28;20177;-64
2023/12/12 07:14:24;;;;;;;21.73;5.85;;;;;;;8.63;83.37;100454.09;5091291;28;20540;-63
2023/12/12 07:16:49;;;;;;;19.60;5.35;;;;;;;8.66;83.93;100458.31;5085027;28;20036;-63
2023/12/12 07:19:14;;;;;;;22.02;5.75;;;;;;;8.65;83.93;100462.16;5080696;28;20398;-63
2023/12/12 07:21:41;;;;;;;22.73;5.82;;;;;;;8.68;83.41;100458.88;5080501;28;20040;-63
2023/12/12 07:24:06;;;;;;;22.00;6.03;;;;;;;8.67;83.86;100465.50;5078994;28;20391;-63
2023/12/12 07:26:32;;;;;;;28.08;6.50;;;;;;;8.68;84.37;100464.41;5075801;28;20028;-62
2023/12/12 07:28:57;;;;;;;21.08;5.43;;;;;;;8.66;84.64;100463.84;5085310;28;20040;-63
2023/12/12 07:31:23;;;;;;;26.20;5.93;;;;;;;8.71;84.43;100469.44;5081944;28;20035;-63
2023/12/12 07:33:48;;;;;;;26.27;6.55;;;;;;;8.68;84.48;100465.25;5078445;28;20027;-63
2023/12/12 07:36:14;;;;;;;23.85;5.75;;;;;;;8.72;84.64;100455.34;5091503;28;20146;-63
2023/12/12 07:38:39;;;;;;;23.30;5.97;;;;;;;8.72;85.01;100462.81;5091999;28;20489;-62
2023/12/12 07:41:05;;;;;;;22.98;6.28;;;;;;;8.74;84.99;100458.72;5089575;28;20061;-63
2023/12/12 07:43:30;;;;;;;18.17;5.50;;;;;;;8.76;84.87;100450.16;5092156;28;20028;-63
2023/12/12 07:45:55;;;;;;;23.40;5.10;;;;;;;8.76;84.89;100444.63;5077187;28;20071;-63
2023/12/12 07:48:20;;;;;;;26.33;5.82;;;;;;;8.77;84.72;100440.78;5076823;28;20039;-62
2023/12/12 07:50:46;;;;;;;22.92;6.15;;;;;;;8.77;85.12;100436.09;5087498;28;20051;-63
2023/12/12 07:53:14;;;;;;;29.77;6.30;;;;;;;8.78;85.20;100434.16;5091281;28;20051;-62
2023/12/12 07:55:39;;;;;;;23.73;6.07;;;;;;;8.81;85.23;100428.13;5078120;28;20059;-63
2023/12/12 07:58:05;;;;;;;30.30;6.68;;;;;;;8.80;85.40;100429.19;5083977;28;20024;-63
2023/12/12 08:00:30;;;;;;;27.50;5.60;;;;;;;8.79;85.54;100427.53;5072178;28;20032;-64
2023/12/12 08:02:56;;;;;;;25.67;5.75;;;;;;;8.79;85.34;100431.13;5091764;28;20024;-67
2023/12/12 08:05:21;;;;;;;31.52;6.93;;;;;;;8.80;85.45;100424.53;5075465;28;20032;-66
2023/12/12 08:07:48;;;;;;;26.33;6.90;;;;;;;8.91;86.17;100417.19;5074938;28;20035;-65
2023/12/12 08:10:13;;;;;;;21.92;5.38;;;;;;;8.91;85.10;100421.91;5082231;28;20419;-64
2023/12/12 08:12:42;;;;;;;24.73;6.60;;;;;;;8.92;85.05;100416.13;5079408;28;20032;-65
2023/12/12 08:15:08;;;;;;;23.98;5.95;;;;;;;8.93;84.65;100403.97;5083651;28;20094;-65
2023/12/12 08:17:34;;;;;;;23.85;6.15;;;;;;;8.95;84.54;100409.25;5075110;28;20024;-65
2023/12/12 08:19:59;;;;;;;24.85;5.70;;;;;;;8.95;84.61;100399.00;5073716;28;20464;-65
2023/12/12 08:22:25;;;;;;;23.38;5.82;;;;;;;8.96;85.16;100406.22;5080351;28;20039;-65
2023/12/12 08:24:51;;;;;;;21.15;5.28;;;;;;;8.94;85.04;100397.31;5074917;28;20666;-65
2023/12/12 08:27:19;;;;;;;28.55;6.60;;;;;;;8.96;85.10;100402.59;5086271;28;20020;-65
2023/12/12 08:29:47;;;;;;;22.48;5.55;;;;;;;8.97;85.06;100394.06;5074310;28;20036;-65
2023/12/12 08:32:13;;;;;;;22.20;5.25;;;;;;;9.01;84.64;100388.84;5083682;28;20111;-66
2023/12/12 08:34:38;;;;;;;22.77;5.25;;;;;;;9.00;84.44;100393.56;5070024;28;20045;-66
2023/12/12 08:37:03;;;;;;;21.67;4.95;;;;;;;9.00;84.79;100388.03;5077287;28;20055;-66
2023/12/12 08:39:31;;;;;;;21.52;4.95;;;;;;;9.01;84.75;100389.69;5080145;28;20103;-63
2023/12/12 08:41:57;;;;;;;17.90;4.72;;;;;;;9.04;84.55;100391.13;5070003;28;20037;-65
2023/12/12 08:44:22;;;;;;;23.33;4.90;;;;;;;9.05;84.45;100398.31;5070675;28;20479;-66
2023/12/12 08:46:48;;;;;;;17.20;5.10;;;;;;;9.06;84.13;100384.22;5072181;28;20032;-65
2023/12/12 08:49:13;;;;;;;18.77;5.18;;;;;;;9.06;84.66;100384.22;5070101;28;20517;-66
2023/12/12 08:51:39;;;;;;;23.25;5.38;;;;;;;9.06;84.83;100383.38;5074338;28;20427;-65
2023/12/12 08:54:04;;;;;;;25.83;6.03;;;;;;;9.09;84.45;100383.72;5075641;28;20493;-63
2023/12/12 08:56:30;;;;;;;21.05;5.18;;;;;;;9.13;84.42;100383.22;5074372;28;20055;-62
2023/12/12 08:58:58;;;;;;;21.80;5.65;;;;;;;9.14;84.20;100376.56;5079058;28;20376;-66
2023/12/12 09:01:23;;;;;;;22.40;5.60;;;;;;;9.15;83.92;100372.72;5088159;28;20075;-66
2023/12/12 09:03:48;;;;;;;23.50;5.78;;;;;;;9.15;84.25;100370.78;5083742;28;20522;-66
2023/12/12 09:06:14;;;;;;;21.33;5.03;;;;;;;9.16;84.16;100364.16;5090817;28;20161;-67
2023/12/12 09:08:43;;;;;;;23.20;5.75;;;;;;;9.17;84.39;100365.00;5073570;28;20055;-66
2023/12/12 09:11:12;;;;;;;17.73;5.22;;;;;;;9.18;84.22;100350.88;5070700;28;20038;-66
2023/12/12 09:13:38;;;;;;;25.75;5.90;;;;;;;9.20;84.03;100351.47;5070015;28;20047;-66
2023/12/12 09:16:03;;;;;;;21.35;5.30;;;;;;;9.19;84.34;100341.47;5070066;28;20033;-66
2023/12/12 09:18:29;;;;;;;22.55;5.65;;;;;;;9.21;84.41;100335.69;5076337;28;20034;-66
2023/12/12 09:20:54;;;;;;;20.95;5.30;;;;;;;9.24;83.90;100335.19;5080156;28;20352;-60
2023/12/12 09:23:20;;;;;;;18.38;5.32;;;;;;;9.29;84.51;100335.25;5069540;28;20033;-66
2023/12/12 09:25:46;;;;;;;15.27;5.05;;;;;;;9.34;84.56;100338.06;5069883;28;20081;-66
2023/12/12 09:28:11;;;;;;;20.00;4.95;;;;;;;9.38;83.94;100330.09;5072121;28;20418;-66
2023/12/12 09:30:37;;;;;;;17.80;4.93;;;;;;;9.44;83.95;100324.38;5077685;28;20037;-66
2023/12/12 09:33:02;;;;;;;13.95;4.60;;;;;;;9.51;83.78;100325.00;5073191;28;20432;-66
2023/12/12 09:35:27;;;;;;;15.48;5.40;;;;;;;9.63;84.20;100322.09;5078759;28;20053;-66
2023/12/12 09:37:53;;;;;;;20.50;5.13;;;;;;;9.72;83.20;100328.00;5084491;28;20032;-65
2023/12/12 09:40:18;;;;;;;22.10;4.95;;;;;;;9.79;82.91;100314.78;5082671;28;20030;-66
2023/12/12 09:42:47;;;;;;;18.58;4.95;;;;;;;9.90;82.86;100315.72;5073120;28;20133;-66
2023/12/12 09:45:15;;;;;;;19.50;5.00;;;;;;;9.99;82.74;100320.53;5079190;28;20497;-66
2023/12/12 09:47:47;;;;;;;22.73;5.32;;;;;;;10.09;82.69;100315.06;5085840;28;24201;-66
2023/12/12 09:50:13;;;;;;;16.00;4.72;;;;;;;10.13;82.59;100309.84;5089875;28;20028;-63
2023/12/12 09:52:39;;;;;;;12.50;4.20;;;;;;;10.10;81.83;100304.84;5093112;28;20027;-63
2023/12/12 09:55:06;;;;;;;12.45;4.15;;;;;;;10.09;81.56;100295.66;5092829;28;20024;-63
2023/12/12 09:57:32;;;;;;;13.93;4.05;;;;;;;10.13;81.79;100292.34;5072330;28;20070;-64
2023/12/12 09:59:58;;;;;;;17.67;4.30;;;;;;;10.11;81.46;100283.47;5089108;28;20020;-64
2023/12/12 10:02:30;;;;;;;15.98;4.10;;;;;;;10.10;81.76;100271.56;5092904;28;20055;-63
2023/12/12 10:04:56;;;;;;;14.55;4.68;;;;;;;10.16;82.09;100277.97;5088551;28;20387;-64
2023/12/12 10:07:24;;;;;;;14.85;4.25;;;;;;;10.18;81.36;100271.06;5089775;28;20036;-63
2023/12/12 10:09:50;;;;;;;13.88;3.97;;;;;;;10.25;81.38;100271.69;5073759;28;20036;-64
2023/12/12 10:12:16;;;;;;;15.20;4.50;;;;;;;10.36;81.44;100255.97;5090990;28;20043;-63
2023/12/12 10:14:47;;;;;;;15.63;4.38;;;;;;;10.50;81.09;100257.19;5072726;28;20032;-62
2023/12/12 10:17:13;;;;;;;12.52;4.38;;;;;;;10.68;80.83;100250.34;5087376;28;20020;-64
2023/12/12 10:19:38;;;;;;;14.43;4.10;;;;;;;10.87;80.12;100247.13;5077944;28;20129;-63
2023/12/12 10:22:05;;;;;;;13.75;4.15;;;;;;;11.00;79.46;100244.72;5091984;28;20018;-63
2023/12/12 10:24:30;;;;;;;12.40;3.70;;;;;;;11.14;79.14;100241.41;5085114;28;20461;-63
2023/12/12 10:26:56;;;;;;;14.38;4.18;;;;;;;11.25;78.83;100234.78;5092790;28;20032;-63
2023/12/12 10:29:22;;;;;;;15.02;3.95;;;;;;;11.39;78.89;100232.31;5092708;28;20031;-63
2023/12/12 10:31:48;;;;;;;11.85;3.53;;;;;;;11.47;78.15;100229.84;5089306;28;20421;-64
2023/12/12 10:34:13;;;;;;;12.68;3.55;;;;;;;11.60;77.70;100233.22;5072097;28;20028;-63
2023/12/12 10:36:42;;;;;;;8.20;3.05;;;;;;;11.66;77.41;100232.09;5079949;28;20031;-60
2023/12/12 10:39:15;;;;;;;10.38;3.30;;;;;;;11.71;77.15;100230.19;5084382;28;20038;-59
2023/12/12 10:41:50;;;;;;;7.97;3.15;;;;;;;11.80;76.90;100220.19;5086749;28;20028;-66
2023/12/12 10:44:18;;;;;;;8.80;3.20;;;;;;;11.78;76.59;100222.38;5073490;28;20463;-66
2023/12/12 10:46:44;;;;;;;10.35;3.00;;;;;;;11.78;76.37;100216.00;5072160;28;20511;-67
2023/12/12 10:49:11;;;;;;;11.75;3.40;;;;;;;11.70;76.63;100216.53;5072824;28;20064;-67
2023/12/12 10:51:37;;;;;;;9.50;3.05;;;;;;;11.67;76.61;100212.41;5072731;28;20060;-70
2023/12/12 10:54:03;;;;;;;8.27;2.70;;;;;;;11.63;76.82;100210.41;5074049;28;20074;-70
2023/12/12 10:56:35;;;;;;;11.02;2.80;;;;;;;11.53;76.46;100205.69;5074380;28;20039;-70
2023/12/12 10:59:02;;;;;;;10.43;2.30;;;;;;;11.44;76.70;100210.13;5083347;28;20078;-70
2023/12/12 11:01:28;;;;;;;8.82;2.60;;;;;;;11.35;77.44;100198.69;5074806;28;20059;-72
2023/12/12 11:03:57;;;;;;;10.05;2.88;;;;;;;11.29;77.46;100185.91;5071163;28;20024;-71
2023/12/12 11:06:23;;;;;;;7.93;2.47;;;;;;;11.23;77.59;100187.00;5081608;28;20028;-71
2023/12/12 11:08:48;;;;;;;8.82;2.75;;;;;;;11.16;77.84;100183.63;5081300;28;20069;-68
2023/12/12 11:11:18;;;;;;;8.63;3.10;;;;;;;11.09;77.75;100171.97;5082458;28;20036;-70
2023/12/12 11:13:44;;;;;;;11.20;2.80;;;;;;;11.04;77.79;100170.84;5092175;28;20140;-69
2023/12/12 11:16:10;;;;;;;9.55;2.70;;;;;;;10.99;78.13;100161.66;5083580;28;20945;-69
2023/12/12 11:18:42;;;;;;;8.15;2.60;;;;;;;10.92;78.64;100153.56;5081279;28;20036;-71